Time;durP1;ratioP1;P1;durP2;ratioP2;P2;SDS_P1;SDS_P2;PMS_P1;PMS_P2;Temp;Humidity;BMP_temperature;BMP_pressure;BME280_temperature;BME280_humidity;BME280_pressure;Samples;Min_cycle;Max_cycle;Signal;HPM_P1;HPM_P2
2021/03/13 00:00:55;;;;;;;11.43;10.07;;;;;18.00;99096.00;;;;2085594;28;20381;-70
2021/03/13 00:01:55;;;;;;;10.47;9.37;;;;;18.00;99094.00;;;;2080402;28;20242;-70
2021/03/13 00:02:58;;;;;;;10.40;9.33;;;;;17.90;99090.00;;;;2085668;28;20219;-70
2021/03/13 00:03:58;;;;;;;10.43;9.20;;;;;18.00;99088.00;;;;2079705;28;20221;-70
2021/03/13 00:04:58;;;;;;;10.27;9.17;;;;;18.00;99081.00;;;;2086108;28;20204;-70
2021/03/13 00:05:59;;;;;;;11.40;8.77;;;;;17.90;99086.00;;;;2079952;28;20711;-71
2021/03/13 00:06:59;;;;;;;13.27;9.67;;;;;17.90;99075.00;;;;2085529;28;20739;-70
2021/03/13 00:08:00;;;;;;;11.40;9.13;;;;;18.00;99084.00;;;;2082356;28;20212;-70
2021/03/13 00:09:00;;;;;;;10.40;8.73;;;;;18.00;99078.00;;;;2085510;28;20204;-70
2021/03/13 00:10:00;;;;;;;10.20;9.10;;;;;18.00;99077.00;;;;2087237;28;20584;-70
2021/03/13 00:11:01;;;;;;;10.00;8.63;;;;;17.90;99071.00;;;;2087090;28;20215;-70
2021/03/13 00:12:01;;;;;;;11.13;8.83;;;;;17.90;99069.00;;;;2087139;28;20239;-71
2021/03/13 00:13:02;;;;;;;11.27;8.53;;;;;17.90;99061.00;;;;2079458;28;20227;-70
2021/03/13 00:14:03;;;;;;;9.57;8.40;;;;;17.90;99070.00;;;;2077630;28;20729;-69
2021/03/13 00:15:04;;;;;;;9.90;7.60;;;;;17.90;99066.00;;;;2070414;28;20219;-70
2021/03/13 00:16:05;;;;;;;8.50;7.22;;;;;17.90;99065.00;;;;2086914;28;20226;-71
2021/03/13 00:17:05;;;;;;;8.57;7.28;;;;;17.90;99058.00;;;;2069648;28;20209;-71
2021/03/13 00:18:06;;;;;;;10.17;7.73;;;;;17.90;99058.00;;;;2078364;28;20672;-70
2021/03/13 00:19:06;;;;;;;8.93;7.87;;;;;17.90;99054.00;;;;2078896;28;20222;-70
2021/03/13 00:20:08;;;;;;;9.33;7.50;;;;;17.80;99058.00;;;;2087087;28;20307;-71
2021/03/13 00:21:08;;;;;;;9.85;8.30;;;;;17.80;99050.00;;;;2069915;28;20245;-71
2021/03/13 00:22:09;;;;;;;8.53;7.10;;;;;17.70;99065.00;;;;2070404;28;20719;-70
2021/03/13 00:23:09;;;;;;;8.90;8.00;;;;;17.80;99051.00;;;;2078799;28;20221;-71
2021/03/13 00:24:10;;;;;;;8.63;7.30;;;;;17.80;99058.00;;;;2079332;28;20230;-71
2021/03/13 00:25:11;;;;;;;8.43;7.23;;;;;17.80;99037.00;;;;2086246;28;20333;-71
2021/03/13 00:26:11;;;;;;;8.27;7.40;;;;;17.80;99050.00;;;;2070087;28;20215;-70
2021/03/13 00:27:11;;;;;;;7.00;6.30;;;;;17.80;99048.00;;;;2070376;28;20314;-70
2021/03/13 00:28:12;;;;;;;10.27;7.73;;;;;17.80;99041.00;;;;2078871;28;20223;-70
2021/03/13 00:29:12;;;;;;;8.07;7.27;;;;;17.80;99042.00;;;;2079500;28;20218;-71
2021/03/13 00:30:17;;;;;;;10.77;8.03;;;;;17.80;99040.00;;;;2077380;28;20215;-70
2021/03/13 00:31:17;;;;;;;7.68;6.55;;;;;17.80;99041.00;;;;2072135;28;20246;-71
2021/03/13 00:32:18;;;;;;;9.00;6.97;;;;;17.80;99034.00;;;;2085460;28;20210;-70
2021/03/13 00:33:19;;;;;;;7.37;6.30;;;;;17.80;99034.00;;;;2077874;28;20222;-67
2021/03/13 00:34:20;;;;;;;7.57;6.22;;;;;17.80;99044.00;;;;2080059;28;20218;-70
2021/03/13 00:35:22;;;;;;;9.00;6.70;;;;;17.80;99038.00;;;;2078344;28;20216;-70
2021/03/13 00:36:22;;;;;;;8.02;6.63;;;;;17.80;99036.00;;;;2071458;28;20294;-71
2021/03/13 00:37:22;;;;;;;8.40;6.40;;;;;17.80;99036.00;;;;2078441;28;20411;-70
2021/03/13 00:38:23;;;;;;;7.73;6.20;;;;;17.80;99037.00;;;;2085512;28;20219;-70
2021/03/13 00:39:23;;;;;;;7.97;6.47;;;;;17.80;99034.00;;;;2087091;28;20219;-70
2021/03/13 00:40:25;;;;;;;8.73;6.30;;;;;17.70;99027.00;;;;2086899;28;20209;-71
2021/03/13 00:41:25;;;;;;;9.13;6.50;;;;;17.70;99016.00;;;;2087423;28;20304;-70
2021/03/13 00:42:25;;;;;;;7.70;5.90;;;;;17.70;99011.00;;;;2085815;28;20219;-70
2021/03/13 00:43:26;;;;;;;7.60;6.00;;;;;17.70;99018.00;;;;2074138;28;20575;-69
2021/03/13 00:44:26;;;;;;;7.70;6.90;;;;;17.70;99007.00;;;;2076830;28;20648;-70
2021/03/13 00:45:26;;;;;;;7.37;5.50;;;;;17.70;99021.00;;;;2082870;28;20226;-70
2021/03/13 00:46:27;;;;;;;7.90;6.07;;;;;17.70;99014.00;;;;2076393;28;20282;-71
2021/03/13 00:47:27;;;;;;;6.10;5.50;;;;;17.70;99012.00;;;;2073688;28;20223;-70
2021/03/13 00:48:27;;;;;;;6.20;5.40;;;;;17.70;99005.00;;;;2085074;28;20211;-70
2021/03/13 00:49:28;;;;;;;7.30;5.73;;;;;17.70;99015.00;;;;2082383;28;20217;-71
2021/03/13 00:50:29;;;;;;;7.87;5.27;;;;;17.70;99010.00;;;;2076096;28;20211;-70
2021/03/13 00:51:29;;;;;;;7.05;5.28;;;;;17.70;99002.00;;;;2074134;28;20223;-71
2021/03/13 00:52:30;;;;;;;7.50;5.67;;;;;17.70;99007.00;;;;2084316;28;21032;-70
2021/03/13 00:53:30;;;;;;;7.20;5.30;;;;;17.70;99011.00;;;;2079853;28;20246;-70
2021/03/13 00:54:31;;;;;;;6.13;5.53;;;;;17.70;99002.00;;;;2082734;28;20570;-70
2021/03/13 00:55:31;;;;;;;7.37;6.00;;;;;17.70;99003.00;;;;2075628;28;20223;-70
2021/03/13 00:56:32;;;;;;;6.87;5.10;;;;;17.70;99005.00;;;;2073917;28;20697;-70
2021/03/13 00:57:32;;;;;;;6.70;5.23;;;;;17.70;99001.00;;;;2084975;28;20252;-71
2021/03/13 00:58:34;;;;;;;6.77;4.90;;;;;17.70;99010.00;;;;2084025;28;20215;-70
2021/03/13 00:59:34;;;;;;;5.55;4.63;;;;;17.70;99001.00;;;;2084207;28;20207;-63
2021/03/13 01:00:35;;;;;;;6.80;4.87;;;;;17.70;98999.00;;;;2071542;28;20852;-63
2021/03/13 01:01:35;;;;;;;6.43;4.90;;;;;17.60;98995.00;;;;2071150;28;20219;-63
2021/03/13 01:02:36;;;;;;;6.03;4.87;;;;;17.70;98994.00;;;;2083479;28;20281;-63
2021/03/13 01:03:36;;;;;;;6.50;4.90;;;;;17.60;98989.00;;;;2083618;28;20322;-64
2021/03/13 01:04:36;;;;;;;7.00;4.73;;;;;17.60;98998.00;;;;2079485;28;20207;-63
2021/03/13 01:05:37;;;;;;;8.10;4.90;;;;;17.60;98983.00;;;;2083882;28;20204;-63
2021/03/13 01:06:37;;;;;;;5.23;4.50;;;;;17.70;98968.00;;;;2082947;28;20292;-63
2021/03/13 01:07:38;;;;;;;6.47;4.83;;;;;17.60;98993.00;;;;2083756;28;20883;-63
2021/03/13 01:08:39;;;;;;;7.13;5.13;;;;;17.60;98986.00;;;;2077524;28;20218;-64
2021/03/13 01:09:39;;;;;;;5.70;4.63;;;;;17.60;98980.00;;;;2070495;28;20219;-63
2021/03/13 01:10:39;;;;;;;5.80;4.37;;;;;17.60;98974.00;;;;2078936;28;20247;-63
2021/03/13 01:11:40;;;;;;;6.77;4.50;;;;;17.60;98977.00;;;;2079336;28;20792;-63
2021/03/13 01:12:40;;;;;;;6.30;4.80;;;;;17.60;98968.00;;;;2074935;28;20310;-64
2021/03/13 01:13:41;;;;;;;4.70;4.30;;;;;17.60;98975.00;;;;2075848;28;20218;-63
2021/03/13 01:14:41;;;;;;;5.87;4.40;;;;;17.60;98975.00;;;;2074548;28;20305;-63
2021/03/13 01:15:43;;;;;;;4.43;4.00;;;;;17.60;98976.00;;;;2080132;28;20234;-64
2021/03/13 01:16:44;;;;;;;4.15;3.55;;;;;17.60;98964.00;;;;2084472;28;20740;-64
2021/03/13 01:17:44;;;;;;;6.70;3.60;;;;;17.60;98966.00;;;;2083066;28;20215;-64
2021/03/13 01:18:44;;;;;;;5.67;4.07;;;;;17.60;98934.00;;;;2085405;28;20220;-63
2021/03/13 01:19:45;;;;;;;5.70;4.33;;;;;17.60;98955.00;;;;2082789;28;20262;-63
2021/03/13 01:20:46;;;;;;;5.57;4.07;;;;;17.60;98958.00;;;;2085029;28;20264;-63
2021/03/13 01:21:47;;;;;;;4.47;3.88;;;;;17.60;98948.00;;;;2082122;28;20306;-64
2021/03/13 01:22:47;;;;;;;5.23;4.30;;;;;17.60;98944.00;;;;2085629;28;20630;-63
2021/03/13 01:23:47;;;;;;;5.17;4.20;;;;;17.50;98941.00;;;;2082391;28;20221;-63
2021/03/13 01:24:48;;;;;;;4.70;3.97;;;;;17.50;98938.00;;;;2085404;28;20206;-63
2021/03/13 01:25:48;;;;;;;4.90;3.80;;;;;17.50;98942.00;;;;2082285;28;21250;-63
2021/03/13 01:26:48;;;;;;;6.47;4.13;;;;;17.60;98940.00;;;;2076241;28;20215;-63
2021/03/13 01:27:49;;;;;;;5.53;3.83;;;;;17.50;98935.00;;;;2079420;28;20780;-63
2021/03/13 01:28:49;;;;;;;6.73;4.30;;;;;17.50;98938.00;;;;2082145;28;20301;-63
2021/03/13 01:29:50;;;;;;;5.17;3.80;;;;;17.50;98932.00;;;;2085744;28;20290;-63
2021/03/13 01:30:50;;;;;;;8.03;4.33;;;;;17.50;98927.00;;;;2073531;28;20216;-63
2021/03/13 01:31:50;;;;;;;4.43;3.33;;;;;17.50;98931.00;;;;2077135;28;20594;-63
2021/03/13 01:32:51;;;;;;;6.20;4.23;;;;;17.50;98926.00;;;;2088023;28;20214;-63
2021/03/13 01:33:51;;;;;;;4.53;3.17;;;;;17.50;98925.00;;;;2081677;28;20214;-63
2021/03/13 01:34:52;;;;;;;4.67;3.87;;;;;17.50;98925.00;;;;2085893;28;20483;-62
2021/03/13 01:35:52;;;;;;;5.57;4.17;;;;;17.50;98919.00;;;;2072901;28;20295;-63
2021/03/13 01:36:53;;;;;;;4.73;2.97;;;;;17.50;98921.00;;;;2076852;28;20230;-63
2021/03/13 01:37:53;;;;;;;5.50;3.30;;;;;17.50;98928.00;;;;2083292;28;20322;-63
2021/03/13 01:38:53;;;;;;;4.77;3.27;;;;;17.50;98916.00;;;;2086425;28;20261;-63
2021/03/13 01:39:54;;;;;;;4.53;3.23;;;;;17.50;98918.00;;;;2087920;28;20218;-63
2021/03/13 01:40:54;;;;;;;5.87;3.80;;;;;17.50;98927.00;;;;2087914;28;20218;-63
2021/03/13 01:41:54;;;;;;;3.60;3.30;;;;;17.50;98910.00;;;;2080570;28;20210;-63
2021/03/13 01:42:55;;;;;;;5.10;3.60;;;;;17.50;98910.00;;;;2072687;28;20249;-63
2021/03/13 01:43:55;;;;;;;6.60;3.30;;;;;17.40;98907.00;;;;2070713;28;20215;-63
2021/03/13 01:44:55;;;;;;;4.87;3.47;;;;;17.40;98898.00;;;;2077749;28;20689;-63
2021/03/13 01:45:56;;;;;;;4.03;3.20;;;;;17.40;98896.00;;;;2070848;28;20237;-63
2021/03/13 01:46:56;;;;;;;6.63;3.50;;;;;17.50;98908.00;;;;2076769;28;20621;-62
2021/03/13 01:47:56;;;;;;;3.30;2.77;;;;;17.50;98905.00;;;;2074543;28;20711;-64
2021/03/13 01:48:57;;;;;;;4.83;3.20;;;;;17.40;98911.00;;;;2064350;28;20283;-63
2021/03/13 01:49:57;;;;;;;4.10;2.97;;;;;17.50;98908.00;;;;2076980;28;20496;-67
2021/03/13 01:50:58;;;;;;;4.40;3.47;;;;;17.40;98888.00;;;;2071042;28;20210;-64
2021/03/13 01:51:58;;;;;;;4.23;3.27;;;;;17.40;98893.00;;;;2069803;28;20219;-63
2021/03/13 01:52:58;;;;;;;4.60;3.20;;;;;17.40;98892.00;;;;2078960;28;20314;-64
2021/03/13 01:53:59;;;;;;;3.90;3.50;;;;;17.40;98887.00;;;;2084596;28;20212;-65
2021/03/13 01:55:00;;;;;;;3.37;2.60;;;;;17.40;98893.00;;;;2071688;28;20212;-64
2021/03/13 01:56:00;;;;;;;4.15;3.33;;;;;17.40;98891.00;;;;2070880;28;20309;-63
2021/03/13 01:57:01;;;;;;;3.63;2.70;;;;;17.40;98873.00;;;;2077922;28;20727;-64
2021/03/13 01:58:01;;;;;;;3.40;2.67;;;;;17.40;98879.00;;;;2055196;28;20213;-64
2021/03/13 01:59:01;;;;;;;3.97;3.10;;;;;17.40;98876.00;;;;2070474;28;20213;-63
2021/03/13 02:00:05;;;;;;;3.37;2.70;;;;;17.40;98876.00;;;;2080283;28;20210;-63
2021/03/13 02:01:07;;;;;;;3.53;2.70;;;;;17.40;98879.00;;;;2086648;28;20735;-63
2021/03/13 02:02:07;;;;;;;3.33;2.95;;;;;17.40;98869.00;;;;2061669;28;20284;-63
2021/03/13 02:03:08;;;;;;;3.33;2.80;;;;;17.40;98867.00;;;;2070088;28;20326;-64
2021/03/13 02:04:08;;;;;;;4.20;2.60;;;;;17.40;98862.00;;;;2079550;28;20328;-63
2021/03/13 02:05:12;;;;;;;4.60;2.70;;;;;17.40;98866.00;;;;2087428;28;20219;-64
2021/03/13 02:06:12;;;;;;;3.47;2.70;;;;;17.40;98861.00;;;;2077830;28;20218;-62
2021/03/13 02:07:42;;;;;;;2.93;2.60;;;;;17.30;98858.00;;;;2077493;28;20296;-62
2021/03/13 02:08:49;;;;;;;3.25;2.95;;;;;17.40;98851.00;;;;2053378;28;20209;-63
2021/03/13 02:09:52;;;;;;;3.38;2.60;;;;;17.40;98850.00;;;;2054176;28;20222;-62
2021/03/13 02:11:14;;;;;;;3.55;2.70;;;;;17.40;98839.00;;;;2064571;28;20220;-63
2021/03/13 02:12:34;;;;;;;3.45;2.20;;;;;17.30;98839.00;;;;2074669;28;20769;-63
2021/03/13 02:13:51;;;;;;;3.95;3.20;;;;;17.40;98835.00;;;;2083658;28;20222;-63
2021/03/13 02:15:06;;;;;;;3.95;2.65;;;;;17.40;98842.00;;;;2085302;28;20351;-62
2021/03/13 02:16:10;;;;;;;4.78;2.80;;;;;17.30;98829.00;;;;2077436;28;20244;-63
2021/03/13 02:17:33;;;;;;;2.95;2.40;;;;;17.30;98828.00;;;;2086677;28;20214;-64
2021/03/13 02:18:36;;;;;;;3.60;2.90;;;;;17.30;98826.00;;;;2070582;28;20679;-64
2021/03/13 02:19:58;;;;;;;3.90;2.45;;;;;17.30;98837.00;;;;2066583;28;20237;-65
2021/03/13 02:21:13;;;;;;;3.17;2.30;;;;;17.30;98820.00;;;;2074034;28;20353;-63
2021/03/13 02:22:14;;;;;;;2.90;2.40;;;;;17.30;98818.00;;;;2080111;28;20218;-63
2021/03/13 02:23:14;;;;;;;2.43;2.20;;;;;17.30;98818.00;;;;2076814;28;20237;-63
2021/03/13 02:24:37;;;;;;;3.53;2.80;;;;;17.30;98810.00;;;;2054158;28;20204;-64
2021/03/13 02:26:02;;;;;;;4.05;2.50;;;;;17.30;98813.00;;;;2052345;28;20839;-63
2021/03/13 02:27:14;;;;;;;2.55;2.35;;;;;17.30;98817.00;;;;2085966;28;20316;-64
2021/03/13 02:28:18;;;;;;;3.75;2.78;;;;;17.10;98807.00;;;;2070646;28;20215;-63
2021/03/13 02:29:33;;;;;;;3.17;2.47;;;;;17.30;98808.00;;;;2077089;28;20225;-63
2021/03/13 02:30:33;;;;;;;4.47;2.78;;;;;17.30;98791.00;;;;2077855;28;20747;-63
2021/03/13 02:31:34;;;;;;;2.63;2.03;;;;;17.30;98797.00;;;;2064617;28;20215;-65
2021/03/13 02:32:42;;;;;;;3.03;2.53;;;;;17.30;98784.00;;;;2058379;28;20220;-64
2021/03/13 02:33:42;;;;;;;3.40;2.45;;;;;17.30;98794.00;;;;2075256;28;20472;-64
2021/03/13 02:34:43;;;;;;;3.20;2.30;;;;;17.30;98783.00;;;;2062209;28;20266;-64
2021/03/13 02:35:44;;;;;;;3.40;2.50;;;;;17.30;98778.00;;;;2061904;28;20797;-63
2021/03/13 02:36:44;;;;;;;3.50;2.67;;;;;17.30;98770.00;;;;2066251;28;20392;-63
2021/03/13 02:37:47;;;;;;;2.33;2.10;;;;;17.30;98763.00;;;;2073868;28;20218;-63
2021/03/13 02:38:53;;;;;;;2.80;2.03;;;;;17.30;98773.00;;;;2077332;28;20235;-63
2021/03/13 02:39:54;;;;;;;3.47;2.50;;;;;17.30;98763.00;;;;2077203;28;20228;-63
2021/03/13 02:40:56;;;;;;;2.92;2.10;;;;;17.30;98768.00;;;;2069279;28;20223;-63
2021/03/13 02:42:01;;;;;;;2.42;2.00;;;;;17.20;98764.00;;;;2072029;28;20262;-64
2021/03/13 02:43:04;;;;;;;4.10;2.17;;;;;17.20;98763.00;;;;2055668;28;20215;-63
2021/03/13 02:44:05;;;;;;;2.85;2.22;;;;;17.30;98758.00;;;;2071006;28;20226;-64
2021/03/13 02:45:06;;;;;;;3.10;2.30;;;;;17.20;98747.00;;;;2062741;28;20659;-63
2021/03/13 02:46:06;;;;;;;3.60;2.38;;;;;17.20;98750.00;;;;2070198;28;20556;-63
2021/03/13 02:47:07;;;;;;;2.97;2.13;;;;;17.00;98747.00;;;;2061903;28;20236;-63
2021/03/13 02:48:08;;;;;;;2.40;1.93;;;;;17.20;98745.00;;;;2054261;28;20213;-63
2021/03/13 02:49:10;;;;;;;3.92;2.50;;;;;17.20;98743.00;;;;2054790;28;20219;-64
2021/03/13 02:50:11;;;;;;;3.13;2.40;;;;;17.20;98743.00;;;;2062997;28;20239;-63
2021/03/13 02:51:14;;;;;;;2.97;2.40;;;;;17.20;98752.00;;;;2063164;28;20211;-63
2021/03/13 02:52:15;;;;;;;2.97;1.67;;;;;17.20;98746.00;;;;2063310;28;20222;-63
2021/03/13 02:53:15;;;;;;;2.87;1.97;;;;;17.20;98753.00;;;;2054577;28;20300;-63
2021/03/13 02:54:15;;;;;;;3.20;2.23;;;;;17.20;98746.00;;;;2062091;28;20223;-63
2021/03/13 02:55:16;;;;;;;3.47;2.30;;;;;17.20;98745.00;;;;2063393;28;20207;-63
2021/03/13 02:56:16;;;;;;;3.30;2.33;;;;;17.20;98739.00;;;;2060399;28;20255;-63
2021/03/13 02:57:16;;;;;;;3.43;2.03;;;;;17.20;98738.00;;;;2062390;28;20580;-63
2021/03/13 02:58:18;;;;;;;3.60;2.00;;;;;17.20;98734.00;;;;2071757;28;20212;-63
2021/03/13 02:59:18;;;;;;;3.88;2.00;;;;;17.20;98730.00;;;;2069102;28;20295;-63
2021/03/13 03:00:20;;;;;;;2.97;2.00;;;;;17.20;98734.00;;;;2054424;28;20276;-63
2021/03/13 03:01:20;;;;;;;3.22;2.10;;;;;17.20;98712.00;;;;2064498;28;20638;-63
2021/03/13 03:02:21;;;;;;;2.03;1.70;;;;;17.20;98716.00;;;;2070221;28;20313;-63
2021/03/13 03:03:21;;;;;;;2.50;1.90;;;;;17.20;98721.00;;;;2064401;28;20223;-64
2021/03/13 03:04:21;;;;;;;5.30;2.60;;;;;17.20;98694.00;;;;2067536;28;20204;-64
2021/03/13 03:05:23;;;;;;;4.00;1.97;;;;;17.20;98703.00;;;;2062709;28;20225;-63
2021/03/13 03:06:23;;;;;;;2.33;1.85;;;;;17.20;98702.00;;;;2067686;28;20215;-63
2021/03/13 03:07:24;;;;;;;2.77;1.73;;;;;17.10;98703.00;;;;2061708;28;20319;-63
2021/03/13 03:08:25;;;;;;;2.38;1.70;;;;;17.20;98715.00;;;;2075088;28;20206;-63
2021/03/13 03:09:26;;;;;;;2.60;1.90;;;;;17.20;98710.00;;;;2077167;28;20695;-64
2021/03/13 03:10:29;;;;;;;3.87;2.47;;;;;17.10;98708.00;;;;2060615;28;20335;-63
2021/03/13 03:11:29;;;;;;;2.10;1.90;;;;;17.10;98695.00;;;;2067941;28;20467;-63
2021/03/13 03:12:30;;;;;;;3.07;1.97;;;;;17.20;98706.00;;;;2070238;28;20282;-63
2021/03/13 03:13:30;;;;;;;2.23;1.63;;;;;17.10;98697.00;;;;2073620;28;20238;-63
2021/03/13 03:14:31;;;;;;;2.20;1.77;;;;;17.10;98694.00;;;;2075325;28;20223;-64
2021/03/13 03:15:31;;;;;;;1.90;1.50;;;;;17.10;98693.00;;;;2054229;28;20604;-63
2021/03/13 03:16:32;;;;;;;2.90;1.80;;;;;17.10;98686.00;;;;2052274;28;20223;-63
2021/03/13 03:17:32;;;;;;;2.33;1.70;;;;;17.10;98679.00;;;;2057782;28;20219;-63
2021/03/13 03:18:33;;;;;;;2.80;1.60;;;;;17.10;98686.00;;;;2065695;28;20218;-63
2021/03/13 03:19:33;;;;;;;2.00;1.70;;;;;17.10;98690.00;;;;2062482;28;20219;-63
2021/03/13 03:20:33;;;;;;;2.50;1.97;;;;;17.10;98685.00;;;;2062240;28;20223;-63
2021/03/13 03:21:34;;;;;;;2.53;1.87;;;;;17.10;98687.00;;;;2073976;28;20727;-63
2021/03/13 03:22:35;;;;;;;1.95;1.50;;;;;17.10;98687.00;;;;2070455;28;20321;-63
2021/03/13 03:23:37;;;;;;;1.80;1.60;;;;;17.10;98681.00;;;;2078607;28;20840;-63
2021/03/13 03:24:37;;;;;;;2.10;1.65;;;;;17.10;98672.00;;;;2082668;28;20547;-63
2021/03/13 03:25:37;;;;;;;3.47;1.73;;;;;17.10;98669.00;;;;2074268;28;20222;-63
2021/03/13 03:26:39;;;;;;;1.83;1.40;;;;;17.10;98657.00;;;;2073601;28;20219;-64
2021/03/13 03:27:53;;;;;;;3.92;1.83;;;;;17.10;98664.00;;;;2081332;28;20949;-64
2021/03/13 03:28:53;;;;;;;2.00;1.60;;;;;17.10;98641.00;;;;2078465;28;20252;-63
2021/03/13 03:29:53;;;;;;;3.50;1.80;;;;;17.10;98645.00;;;;2085305;28;20704;-63
2021/03/13 03:30:54;;;;;;;2.00;1.80;;;;;17.10;98639.00;;;;2080696;28;20206;-63
2021/03/13 03:31:54;;;;;;;2.70;1.57;;;;;17.10;98638.00;;;;2076969;28;20214;-63
2021/03/13 03:32:55;;;;;;;2.17;1.70;;;;;17.10;98636.00;;;;2071619;28;20217;-63
2021/03/13 03:33:56;;;;;;;1.75;1.40;;;;;17.10;98640.00;;;;2070334;28;20689;-63
2021/03/13 03:34:56;;;;;;;2.03;1.60;;;;;17.10;98636.00;;;;2077180;28;20231;-63
2021/03/13 03:35:57;;;;;;;2.03;1.53;;;;;17.10;98637.00;;;;2078233;28;20223;-63
2021/03/13 03:36:57;;;;;;;1.93;1.73;;;;;17.10;98628.00;;;;2077884;28;20221;-63
2021/03/13 03:37:59;;;;;;;3.10;1.63;;;;;17.10;98626.00;;;;2079211;28;20254;-63
2021/03/13 03:38:59;;;;;;;2.22;1.60;;;;;17.10;98622.00;;;;2075961;28;20309;-63
2021/03/13 03:40:00;;;;;;;2.03;1.50;;;;;17.00;98624.00;;;;2070319;28;20222;-63
2021/03/13 03:41:00;;;;;;;2.33;1.50;;;;;17.00;98611.00;;;;2077520;28;20267;-63
2021/03/13 03:42:01;;;;;;;2.63;1.43;;;;;17.00;98605.00;;;;2077857;28;20214;-63
2021/03/13 03:43:46;;;;;;;1.97;1.43;;;;;17.00;98620.00;;;;2078256;28;20777;-63
2021/03/13 03:44:46;;;;;;;2.38;1.58;;;;;17.00;98604.00;;;;2043258;29;20463;-63
2021/03/13 03:45:51;;;;;;;1.93;1.30;;;;;17.00;98598.00;;;;2065331;28;20257;-63
2021/03/13 03:46:54;;;;;;;2.25;1.52;;;;;17.00;98595.00;;;;2077806;28;20225;-63
2021/03/13 03:47:54;;;;;;;1.38;1.27;;;;;17.00;98590.00;;;;2078103;28;20301;-62
2021/03/13 03:48:55;;;;;;;1.43;1.13;;;;;17.00;98599.00;;;;2063617;28;20263;-63
2021/03/13 03:49:55;;;;;;;1.87;1.27;;;;;17.00;98591.00;;;;2068897;28;20709;-63
2021/03/13 03:50:56;;;;;;;2.00;1.50;;;;;17.00;98589.00;;;;2063446;28;20279;-63
2021/03/13 03:51:56;;;;;;;2.33;1.67;;;;;17.00;98589.00;;;;2068906;28;20306;-63
2021/03/13 03:52:57;;;;;;;1.37;1.00;;;;;17.00;98583.00;;;;2055428;28;20207;-63
2021/03/13 03:53:57;;;;;;;2.37;1.77;;;;;17.00;98575.00;;;;2060926;28;20223;-63
2021/03/13 03:54:58;;;;;;;2.77;1.67;;;;;17.00;98580.00;;;;2063357;28;20287;-63
2021/03/13 03:55:58;;;;;;;4.60;1.43;;;;;17.00;98569.00;;;;2060691;28;20737;-63
2021/03/13 03:56:59;;;;;;;1.20;1.10;;;;;17.00;98566.00;;;;2060004;28;20237;-63
2021/03/13 03:57:59;;;;;;;1.97;1.37;;;;;17.00;98563.00;;;;2078426;28;20214;-63
2021/03/13 03:58:59;;;;;;;2.30;1.60;;;;;17.00;98569.00;;;;2077373;28;20685;-63
2021/03/13 04:00:00;;;;;;;1.97;1.17;;;;;17.00;98572.00;;;;2055138;28;20548;-63
2021/03/13 04:01:00;;;;;;;1.40;1.20;;;;;17.00;98565.00;;;;2060754;28;20222;-63
2021/03/13 04:02:00;;;;;;;1.60;1.07;;;;;17.00;98556.00;;;;2077426;28;20724;-63
2021/03/13 04:03:01;;;;;;;1.47;1.37;;;;;17.00;98561.00;;;;2070136;28;20300;-63
2021/03/13 04:04:02;;;;;;;1.63;1.13;;;;;17.00;98557.00;;;;2070180;28;20744;-63
2021/03/13 04:05:02;;;;;;;1.80;1.00;;;;;17.00;98558.00;;;;2077647;28;20445;-64
2021/03/13 04:06:03;;;;;;;2.10;1.60;;;;;17.00;98541.00;;;;2070535;28;20851;-63
2021/03/13 04:07:03;;;;;;;1.37;1.23;;;;;17.00;98534.00;;;;2077244;28;20226;-64
2021/03/13 04:08:04;;;;;;;1.47;0.90;;;;;17.00;98529.00;;;;2070308;28;20632;-63
2021/03/13 04:09:04;;;;;;;1.87;1.20;;;;;17.00;98536.00;;;;2061659;28;20278;-64
2021/03/13 04:10:06;;;;;;;1.23;1.13;;;;;17.00;98539.00;;;;2062105;28;20705;-63
2021/03/13 04:11:06;;;;;;;1.23;1.00;;;;;17.00;98525.00;;;;2077914;28;20210;-63
2021/03/13 04:12:08;;;;;;;2.03;1.23;;;;;17.00;98521.00;;;;2085145;28;20217;-63
2021/03/13 04:13:10;;;;;;;2.05;1.10;;;;;16.90;98523.00;;;;2068822;28;20219;-63
2021/03/13 04:14:11;;;;;;;1.40;0.90;;;;;17.00;98516.00;;;;2069823;28;20216;-63
2021/03/13 04:15:11;;;;;;;1.27;1.17;;;;;17.00;98530.00;;;;2069535;28;20215;-63
2021/03/13 04:16:12;;;;;;;1.90;1.00;;;;;17.00;98522.00;;;;2063480;28;20303;-64
2021/03/13 04:17:12;;;;;;;1.63;1.07;;;;;17.00;98522.00;;;;2071841;28;21062;-63
2021/03/13 04:18:13;;;;;;;1.70;1.20;;;;;17.00;98511.00;;;;2063528;28;20224;-63
2021/03/13 04:19:13;;;;;;;2.23;1.40;;;;;17.00;98510.00;;;;2071541;28;20223;-63
2021/03/13 04:20:14;;;;;;;1.73;1.00;;;;;17.00;98515.00;;;;2080738;28;20296;-63
2021/03/13 04:21:14;;;;;;;1.60;1.17;;;;;17.00;98521.00;;;;2070669;28;20266;-63
2021/03/13 04:22:14;;;;;;;1.73;1.30;;;;;17.00;98509.00;;;;2063363;28;20223;-67
2021/03/13 04:23:19;;;;;;;1.60;1.00;;;;;16.90;98504.00;;;;2072652;28;20295;-63
2021/03/13 04:24:19;;;;;;;1.52;1.00;;;;;16.90;98496.00;;;;2072010;28;20581;-64
2021/03/13 04:25:20;;;;;;;1.53;1.07;;;;;16.90;98501.00;;;;2063359;28;20219;-63
2021/03/13 04:26:20;;;;;;;2.60;1.00;;;;;16.90;98506.00;;;;2064008;28;20301;-63
2021/03/13 04:27:21;;;;;;;1.30;1.20;;;;;16.90;98493.00;;;;2077840;28;20690;-63
2021/03/13 04:28:21;;;;;;;1.60;1.00;;;;;16.90;98501.00;;;;2079711;28;20512;-63
2021/03/13 04:29:22;;;;;;;1.00;0.90;;;;;16.90;98487.00;;;;2065445;28;20734;-63
2021/03/13 04:30:22;;;;;;;1.17;0.80;;;;;16.90;98495.00;;;;2054981;28;20216;-63
2021/03/13 04:31:26;;;;;;;1.80;1.10;;;;;16.90;98479.00;;;;2073740;28;20227;-63
2021/03/13 04:32:27;;;;;;;1.65;0.90;;;;;16.90;98494.00;;;;2063891;28;20250;-64
2021/03/13 04:33:27;;;;;;;1.80;1.03;;;;;16.90;98473.00;;;;2060989;28;20219;-63
2021/03/13 04:34:28;;;;;;;0.93;0.77;;;;;16.90;98485.00;;;;2063289;28;20215;-63
2021/03/13 04:35:29;;;;;;;1.20;0.98;;;;;16.90;98483.00;;;;2063597;28;20211;-63
2021/03/13 04:36:30;;;;;;;1.10;1.00;;;;;16.90;98482.00;;;;2062765;28;20269;-63
2021/03/13 04:37:31;;;;;;;1.63;1.00;;;;;16.90;98477.00;;;;2063233;28;20797;-64
2021/03/13 04:38:31;;;;;;;1.63;0.93;;;;;16.90;98472.00;;;;2071592;28;20214;-63
2021/03/13 04:39:31;;;;;;;2.10;0.97;;;;;16.90;98455.00;;;;2068076;28;20590;-63
2021/03/13 04:40:32;;;;;;;1.40;0.90;;;;;16.90;98465.00;;;;2066479;28;20219;-63
2021/03/13 04:41:32;;;;;;;1.13;0.97;;;;;16.90;98468.00;;;;2063178;28;20231;-63
2021/03/13 04:42:33;;;;;;;1.13;1.03;;;;;16.90;98455.00;;;;2079688;28;20242;-63
2021/03/13 04:43:33;;;;;;;0.90;0.70;;;;;16.90;98447.00;;;;2083212;28;20298;-63
2021/03/13 04:44:34;;;;;;;1.90;1.07;;;;;16.90;98438.00;;;;2071382;28;20222;-64
2021/03/13 04:45:34;;;;;;;1.90;0.90;;;;;16.90;98453.00;;;;2058831;28;20219;-62
2021/03/13 04:46:35;;;;;;;1.23;0.70;;;;;16.90;98445.00;;;;2059087;28;20224;-63
2021/03/13 04:47:41;;;;;;;1.13;0.70;;;;;16.90;98433.00;;;;2075035;28;20226;-63
2021/03/13 04:48:42;;;;;;;1.88;0.80;;;;;16.80;98433.00;;;;2079611;28;20492;-62
2021/03/13 04:49:42;;;;;;;1.20;1.00;;;;;16.90;98426.00;;;;2074706;28;20594;-63
2021/03/13 04:50:42;;;;;;;2.47;1.00;;;;;16.90;98428.00;;;;2063239;28;20279;-63
2021/03/13 04:51:43;;;;;;;1.10;0.80;;;;;16.90;98410.00;;;;2068150;28;20269;-63
2021/03/13 04:52:43;;;;;;;1.27;0.90;;;;;16.90;98412.00;;;;2063146;28;20607;-63
2021/03/13 04:53:44;;;;;;;1.40;0.80;;;;;16.90;98418.00;;;;2076270;28;20579;-62
2021/03/13 04:54:45;;;;;;;1.20;0.75;;;;;16.90;98407.00;;;;2074475;28;20646;-63
2021/03/13 04:55:45;;;;;;;0.90;0.70;;;;;16.80;98402.00;;;;2076580;28;20238;-63
2021/03/13 04:56:45;;;;;;;1.37;0.90;;;;;16.90;98407.00;;;;2082580;28;20219;-63
2021/03/13 04:57:45;;;;;;;1.47;1.00;;;;;16.90;98395.00;;;;2085518;28;20218;-63
2021/03/13 04:58:46;;;;;;;1.20;0.93;;;;;16.80;98389.00;;;;2082998;28;20272;-63
2021/03/13 04:59:46;;;;;;;1.10;0.73;;;;;16.80;98398.00;;;;2079335;28;20226;-63
2021/03/13 05:00:47;;;;;;;1.83;0.90;;;;;16.90;98398.00;;;;2085071;28;20217;-63
2021/03/13 05:01:47;;;;;;;1.47;1.10;;;;;16.80;98398.00;;;;2079958;28;20220;-64
2021/03/13 05:02:47;;;;;;;1.00;0.80;;;;;16.90;98379.00;;;;2080167;28;20300;-63
2021/03/13 05:03:48;;;;;;;1.20;0.80;;;;;16.80;98385.00;;;;2085828;28;20238;-63
2021/03/13 05:04:48;;;;;;;1.03;0.90;;;;;16.80;98377.00;;;;2082569;28;20216;-64
2021/03/13 05:05:48;;;;;;;1.60;0.80;;;;;16.80;98380.00;;;;2084323;28;20671;-63
2021/03/13 05:06:49;;;;;;;0.90;0.70;;;;;16.80;98382.00;;;;2081277;28;20216;-67
2021/03/13 05:07:49;;;;;;;1.00;0.67;;;;;16.80;98369.00;;;;2086058;28;20222;-64
2021/03/13 05:08:49;;;;;;;2.37;0.70;;;;;16.80;98374.00;;;;2082471;28;20221;-64